Data for 09/19/2005

Time Sea-Level Adjusted Pressure Absolute Pressure Temperature Relative Humidity Dew Point   
(mb) (inHg) (mb) (inHg) (C) (F) (%) (C) (F)
00:05 1022 30.18 851 25.13 7.2 45 71 2.3 36.1
00:10 1022 30.18 851 25.13 7.1 44.7 71 2.2 35.9
00:15 1022 30.18 851 25.13 7 44.6 71 2.2 36
00:20 1022 30.18 851 25.13 6.9 44.4 72 2.3 36.1
00:25 1022 30.18 851 25.13 6.7 44.1 73 2.2 36
00:30 1022 30.18 851 25.13 6.5 43.7 73 2.1 35.8
00:35 1022 30.18 851 25.13 6.6 43.8 74 2.3 36.2
00:40 1022 30.18 851 25.13 6.4 43.6 74 2.2 35.9
00:45 1022 30.18 851 25.13 6.3 43.3 75 2.2 35.9
00:50 1022 30.18 851 25.13 6.2 43.2 75 2.2 35.9
00:55 1022 30.18 851 25.13 6.1 42.9 76 2.1 35.8
01:00 1022 30.18 851 25.13 6 42.7 76 2 35.6
01:05 1022 30.18 851 25.13 5.9 42.5 76 2 35.7
01:10 1022 30.18 851 25.13 5.9 42.7 76 2 35.7
01:15 1022 30.18 851 25.13 5.9 42.6 76 2 35.6
01:20 1022 30.18 851 25.13 5.9 42.7 76 2.1 35.8
01:25 1022 30.18 851 25.13 5.8 42.5 76 2 35.6
01:30 1022 30.18 851 25.13 5.8 42.4 77 2 35.6
01:35 1022 30.18 851 25.13 5.8 42.5 76 1.9 35.5
01:40 1022 30.18 851 25.13 5.6 42.1 78 2 35.7
01:45 1022 30.18 851 25.13 5.4 41.8 77 1.8 35.2
01:50 1022 30.18 851 25.13 5.6 42.1 76 1.8 35.2
01:55 1022 30.18 851 25.13 5.7 42.2 76 1.8 35.2
02:00 1022 30.18 851 25.13 5.8 42.4 75 1.8 35.2
02:05 1022 30.18 851 25.13 5.7 42.2 75 1.6 35
02:10 1022 30.18 851 25.13 6.1 42.9 73 1.6 34.9
02:15 1022 30.18 851 25.13 6.5 43.7 72 1.8 35.2
02:20 1022 30.18 851 25.13 6.4 43.5 72 1.6 35
02:25 1022 30.18 851 25.13 6.5 43.7 71 1.6 34.9
02:30 1022 30.18 851 25.13 6.5 43.7 71 1.6 34.8
02:35 1022 30.18 851 25.13 6.5 43.7 72 1.8 35.2
02:40 1022 30.18 851 25.13 6.5 43.7 71 1.6 34.9
02:45 1022 30.18 851 25.13 6.6 43.9 71 1.8 35.2
02:50 1022 30.18 851 25.13 6.3 43.4 73 1.8 35.2
02:55 1022 30.18 851 25.13 5.9 42.6 75 1.8 35.2
03:00 1022 30.18 851 25.13 5.7 42.3 75 1.7 35.1
03:05 1022 30.18 851 25.13 5.7 42.2 75 1.6 34.9
03:10 1022 30.18 851 25.13 5.6 42.1 76 1.6 34.9
03:15 1022 30.18 851 25.13 5.4 41.7 78 1.8 35.3
03:20 1022 30.18 851 25.13 4.8 40.7 81 1.8 35.2
03:25 1022 30.18 851 25.13 4.6 40.3 81 1.6 34.8
03:30 1022 30.18 851 25.13 4.6 40.3 80 1.6 34.8
03:35 1022 30.18 851 25.13 4.5 40 82 1.6 34.9
03:40 1022 30.18 851 25.13 4.5 40.2 80 1.4 34.5
03:45 1022 30.18 851 25.13 5.2 41.3 75 1.2 34.1
03:50 1021 30.15 851 25.13 5.7 42.2 74 1.3 34.4
03:55 1021 30.15 851 25.13 5.7 42.3 74 1.4 34.5
04:00 1021 30.15 851 25.13 5.8 42.4 73 1.3 34.3
04:05 1021 30.15 851 25.13 5.6 42.2 74 1.3 34.4
04:10 1021 30.15 851 25.13 5.7 42.3 73 1.2 34.1
04:15 1021 30.15 851 25.13 5.9 42.6 73 1.5 34.6
04:20 1021 30.15 851 25.13 5.5 41.9 76 1.5 34.7
04:25 1021 30.15 851 25.13 5.4 41.8 76 1.5 34.6
04:30 1021 30.15 851 25.13 5.9 42.6 72 1.3 34.4
04:35 1021 30.15 850 25.1 6.5 43.7 71 1.5 34.7
04:40 1021 30.15 851 25.13 6.5 43.7 71 1.6 34.9
04:45 1021 30.15 851 25.13 6.3 43.4 71 1.5 34.7
04:50 1021 30.15 851 25.13 6.2 43.2 71 1.4 34.5
04:55 1021 30.15 851 25.13 6.2 43.2 71 1.4 34.5
05:00 1021 30.15 851 25.13 6.1 43 71 1.3 34.3
05:05 1022 30.18 851 25.13 6.1 43.1 71 1.3 34.4
05:10 1022 30.18 851 25.13 6.2 43.1 72 1.5 34.7
05:15 1022 30.18 851 25.13 5.9 42.7 73 1.4 34.5
05:20 1022 30.18 851 25.13 6 42.8 72 1.4 34.5
05:25 1022 30.18 851 25.13 6.2 43.2 71 1.3 34.4
05:30 1022 30.18 851 25.13 6.4 43.6 69 1.2 34.2
05:35 1022 30.18 851 25.13 6.8 44.2 67 1.2 34.2
05:40 1022 30.18 851 25.13 7.1 44.8 66 1.3 34.3
05:45 1022 30.18 851 25.13 7.2 44.9 67 1.5 34.7
05:50 1022 30.18 851 25.13 6.6 43.9 70 1.6 34.8
05:55 1022 30.18 851 25.13 6.3 43.4 71 1.4 34.5
06:00 1022 30.18 851 25.13 6.3 43.4 70 1.3 34.4
06:05 1022 30.18 851 25.13 6.3 43.4 71 1.4 34.5
06:10 1022 30.18 851 25.13 5.9 42.6 72 1.2 34.2
06:15 1022 30.18 851 25.13 5.3 41.6 76 1.4 34.5
06:20 1022 30.18 851 25.13 4.7 40.4 77 1.1 33.9
06:25 1022 30.18 851 25.13 4.8 40.7 75 0.8 33.5
06:30 1022 30.18 851 25.13 4.9 40.8 76 1 33.8
06:35 1022 30.18 851 25.13 4.9 40.8 76 1 33.8
06:40 1022 30.18 851 25.13 5 40.9 74 0.7 33.3
06:45 1022 30.18 851 25.13 5 41 74 0.8 33.4
06:50 1022 30.18 851 25.13 4.6 40.3 77 0.9 33.6
06:55 1022 30.18 851 25.13 4.7 40.4 76 0.8 33.4
07:00 1022 30.18 851 25.13 4.6 40.3 76 0.7 33.3
07:05 1022 30.18 851 25.13 4.3 39.8 78 0.8 33.4
07:10 1022 30.18 851 25.13 4.5 40 76 0.5 32.9
07:15 1022 30.18 851 25.13 4.6 40.2 76 0.8 33.4
07:20 1022 30.18 851 25.13 4.2 39.6 78 0.7 33.2
07:25 1022 30.18 851 25.13 4.9 40.9 72 0.3 32.6
07:30 1022 30.18 851 25.13 5.3 41.5 72 0.6 33
07:35 1022 30.18 851 25.13 5.7 42.3 68 0.3 32.5
07:40 1022 30.18 852 25.16 5.9 42.6 69 0.6 33.1
07:45 1022 30.18 852 25.16 5.1 41.2 73 0.8 33.4
07:50 1022 30.18 852 25.16 4.8 40.6 74 0.5 32.9
07:55 1022 30.18 852 25.16 4.8 40.6 74 0.6 33
08:00 1022 30.18 852 25.16 4.7 40.4 76 0.7 33.3
08:05 1022 30.18 852 25.16 4.5 40.1 76 0.6 33.2
08:10 1022 30.18 852 25.16 4.9 40.9 73 0.5 32.9
08:15 1023 30.21 852 25.16 5.7 42.2 70 0.6 33
08:20 1023 30.21 852 25.16 6.1 43 69 0.8 33.5
08:25 1023 30.21 852 25.16 6.6 43.9 67 0.8 33.5
08:30 1023 30.21 852 25.16 7.4 45.2 65 1.2 34.2
08:35 1023 30.21 852 25.16 7.8 46 63 1.3 34.3
08:40 1023 30.21 852 25.16 8.7 47.6 62 2 35.5
08:45 1023 30.21 852 25.16 9 48.2 63 2.3 36.1
08:50 1023 30.21 852 25.16 9 48.3 63 2.5 36.5
08:55 1023 30.21 852 25.16 9.3 48.7 63 2.5 36.6
09:00 1023 30.21 852 25.16 10.1 50.2 60 2.8 37
09:05 1023 30.21 852 25.16 10.8 51.4 58 3 37.4
09:10 1023 30.21 852 25.16 11.2 52.2 58 3.3 38
09:15 1023 30.21 852 25.16 11.4 52.6 57 3.3 37.9
09:20 1023 30.21 852 25.16 12.3 54.1 50 2.1 35.9
09:25 1023 30.21 852 25.16 12.5 54.5 50 2.5 36.4
09:30 1023 30.21 852 25.16 12.3 54.1 48 1.7 35
09:35 1023 30.21 853 25.19 12.6 54.7 48 2 35.6
09:40 1023 30.21 853 25.19 13.4 56.1 45 1.7 35.1
09:45 1023 30.21 853 25.19 14.1 57.3 43 1.6 34.9
09:50 1023 30.21 853 25.19 14.6 58.3 43 2.2 36
09:55 1023 30.21 853 25.19 14.8 58.7 41 1.6 34.9
10:00 1023 30.21 853 25.19 14.9 58.9 42 2.1 35.9
10:05 1024 30.24 853 25.19 14.9 58.8 42 2.2 36
10:10 1024 30.24 853 25.19 15.1 59.1 40 1.6 34.8
10:15 1024 30.24 853 25.19 15.1 59.3 42 2.5 36.5
10:20 1023 30.21 853 25.19 14.8 58.7 42 2.1 35.7
10:25 1023 30.21 853 25.19 14 57.2 44 1.9 35.4
10:30 1024 30.24 853 25.19 14.6 58.3 41 1.7 35.1
10:35 1024 30.24 853 25.19 14.3 57.8 44 2.3 36.1
10:40 1024 30.24 853 25.19 15.1 59.1 40 1.6 34.9
10:45 1024 30.24 853 25.19 15.6 60 41 2.6 36.7
10:50 1024 30.24 853 25.19 15.1 59.1 42 2.3 36.1
10:55 1024 30.24 853 25.19 15.6 60.2 40 2 35.6
11:00 1023 30.21 853 25.19 15.2 59.4 40 1.8 35.3
11:05 1023 30.21 853 25.19 15.8 60.4 38 1.7 35.1
11:10 1023 30.21 853 25.19 15.4 59.7 39 1.5 34.7
11:15 1023 30.21 852 25.16 16.4 61.6 35 0.9 33.5
11:20 1023 30.21 852 25.16 16.3 61.4 35 1.1 34
11:25 1023 30.21 852 25.16 17.4 63.3 32 0.9 33.6
11:30 1023 30.21 852 25.16 17.9 64.2 32 0.9 33.7
11:35 1023 30.21 852 25.16 17.7 63.9 32 1 33.7
11:40 1023 30.21 852 25.16 18.1 64.5 32 1.1 34
11:45 1023 30.21 852 25.16 18 64.4 32 1.1 34
11:50 1023 30.21 852 25.16 18.4 65.1 31 1.3 34.4
11:55 1023 30.21 852 25.16 18.6 65.6 30 1 33.7
12:00 1023 30.21 852 25.16 18.3 65 29 0.2 32.4
12:05 1023 30.21 852 25.16 19.2 66.6 29 0.8 33.5
12:10 1023 30.21 852 25.16 19.2 66.6 29 0.7 33.3
12:15 1023 30.21 852 25.16 19.2 66.5 28 0.4 32.7
12:20 1023 30.21 852 25.16 19.8 67.7 27 0.7 33.2
12:25 1023 30.21 852 25.16 19.7 67.5 28 0.7 33.2
12:30 1023 30.21 852 25.16 18.9 66 28 0.3 32.6
12:35 1023 30.21 852 25.16 19.6 67.3 26 -0.2 31.6
12:40 1023 30.21 852 25.16 19.3 66.7 27 0.1 32.1
12:45 1023 30.21 852 25.16 20 68 25 -0.2 31.6
12:50 1023 30.21 852 25.16 20.7 69.3 25 -0.1 31.8
12:55 1023 30.21 852 25.16 21 69.8 24 0 32.1
13:00 1022 30.18 852 25.16 22 71.6 22 -0.4 31.3
13:05 1022 30.18 852 25.16 22.3 72.1 19 -1.9 28.5
13:10 1022 30.18 852 25.16 21.7 71 21 -1.3 29.7
13:15 1022 30.18 851 25.13 21.9 71.3 20 -1.9 28.5
13:20 1022 30.18 851 25.13 21.4 70.5 22 -1 30.3
13:25 1022 30.18 851 25.13 21.6 70.8 21 -1.8 28.8
13:30 1022 30.18 851 25.13 21.9 71.3 20 -1.6 29.1
13:35 1022 30.18 851 25.13 21.4 70.6 22 -0.9 30.3
13:40 1022 30.18 851 25.13 21.5 70.6 20 -2 28.4
13:45 1022 30.18 851 25.13 21.8 71.2 21 -1.6 29.2
13:50 1022 30.18 851 25.13 22.4 72.3 18 -2.7 27.1
13:55 1022 30.18 851 25.13 22.5 72.4 17 -3.3 26.1
14:00 1021 30.15 851 25.13 22.4 72.3 18 -2.7 27.1
14:05 1021 30.15 851 25.13 22.4 72.3 15 -5.2 22.6
14:10 1021 30.15 851 25.13 23.2 73.7 15 -5.1 22.9
14:15 1021 30.15 850 25.1 23.4 74.1 15 -4.5 23.9
14:20 1021 30.15 850 25.1 23.4 74.1 15 -4.4 24.1
14:25 1021 30.15 850 25.1 23.5 74.3 14 -5.5 22.2
14:30 1021 30.15 850 25.1 23.1 73.5 14 -5.7 21.8
14:35 1021 30.15 850 25.1 23 73.4 15 -5.3 22.5
14:40 1021 30.15 850 25.1 23.4 74.2 14 -5.1 22.8
14:45 1021 30.15 850 25.1 23.9 75 14 -4.9 23.3
14:50 1021 30.15 850 25.1 23.7 74.6 14 -5.5 22
14:55 1021 30.15 850 25.1 23.7 74.6 14 -5.4 22.3
15:00 1021 30.15 850 25.1 23.7 74.7 14 -5.5 22.1
15:05 1020 30.12 850 25.1 23.9 74.9 13 -6.2 20.9
15:10 1020 30.12 850 25.1 23.7 74.7 13 -6 21.3
15:15 1020 30.12 850 25.1 23.6 74.5 15 -4.7 23.5
15:20 1020 30.12 850 25.1 23.7 74.7 14 -5.2 22.7
15:25 1020 30.12 850 25.1 23.9 75.1 14 -5.4 22.2
15:30 1020 30.12 849 25.07 23.8 74.8 14 -4.9 23.1
15:35 1020 30.12 849 25.07 23.8 74.8 14 -5.3 22.5
15:40 1020 30.12 849 25.07 23.9 75 13 -5.8 21.5
15:45 1020 30.12 849 25.07 23.7 74.6 14 -5.1 22.8
15:50 1020 30.12 849 25.07 23.7 74.6 14 -5.3 22.4
15:55 1020 30.12 849 25.07 23.8 74.8 14 -5.3 22.5
16:00 1020 30.12 849 25.07 23.9 75 14 -5 23
16:05 1020 30.12 849 25.07 24 75.1 13 -5.5 22.1
16:10 1020 30.12 849 25.07 23.8 74.8 13 -6 21.2
16:15 1020 30.12 849 25.07 23.7 74.6 13 -5.8 21.5
16:20 1020 30.12 849 25.07 23.9 75 14 -5 23
16:25 1020 30.12 849 25.07 23.9 75 14 -5.2 22.6
16:30 1020 30.12 849 25.07 23.9 75.1 14 -5.2 22.7
16:35 1020 30.12 849 25.07 23.8 74.8 13 -5.7 21.7
16:40 1020 30.12 849 25.07 23.8 74.8 14 -5 23
16:45 1020 30.12 849 25.07 23.8 74.8 14 -5.3 22.4
16:50 1020 30.12 849 25.07 23.8 74.8 14 -5.4 22.3
16:55 1020 30.12 849 25.07 23.7 74.7 13 -5.7 21.7
17:00 1020 30.12 849 25.07 23.7 74.7 13 -5.7 21.8
17:05 1020 30.12 849 25.07 23.7 74.7 13 -5.7 21.8
17:10 1020 30.12 849 25.07 23.7 74.7 14 -5.1 22.8
17:15 1020 30.12 849 25.07 23.7 74.7 14 -5.4 22.3
17:20 1020 30.12 849 25.07 23.6 74.6 14 -5.7 21.8
17:25 1020 30.12 849 25.07 23.6 74.4 14 -5 23.1
17:30 1020 30.12 849 25.07 23.6 74.4 15 -4.8 23.4
17:35 1020 30.12 849 25.07 23.6 74.5 15 -4.7 23.5
17:40 1020 30.12 849 25.07 23.5 74.3 14 -5.3 22.5
17:45 1020 30.12 849 25.07 23.4 74.1 15 -4.6 23.7
17:50 1020 30.12 849 25.07 23.4 74.2 15 -4.3 24.3
17:55 1020 30.12 849 25.07 23.3 74 16 -4 24.7
18:00 1020 30.12 849 25.07 23.2 73.7 15 -4.5 23.9
18:05 1020 30.12 849 25.07 23.1 73.5 15 -4.9 23.2
18:10 1020 30.12 849 25.07 23 73.3 15 -4.9 23.1
18:15 1020 30.12 849 25.07 23 73.3 15 -5.1 22.8
18:20 1020 30.12 849 25.07 22.8 73 14 -5.7 21.7
18:25 1020 30.12 849 25.07 22.7 72.8 15 -5.3 22.5
18:30 1020 30.12 849 25.07 22.5 72.5 15 -4.9 23.2
18:35 1020 30.12 849 25.07 21.9 71.5 18 -3.6 25.6
18:40 1020 30.12 849 25.07 21.7 71.1 16 -5.2 22.7
18:45 1020 30.12 849 25.07 21.6 70.9 17 -4.3 24.3
18:50 1020 30.12 849 25.07 21.4 70.5 18 -4 24.8
18:55 1020 30.12 849 25.07 21.2 70.1 16 -5.5 22.2
19:00 1020 30.12 849 25.07 21.2 70.2 17 -4.6 23.8
19:05 1020 30.12 849 25.07 21 69.8 18 -4.3 24.3
19:10 1020 30.12 849 25.07 20.8 69.4 18 -4.3 24.2
19:15 1020 30.12 849 25.07 20.6 69.1 19 -4 24.9
19:20 1020 30.12 849 25.07 20.3 68.5 19 -3.8 25.2
19:25 1020 30.12 850 25.1 20.2 68.4 19 -4.1 24.6
19:30 1020 30.12 850 25.1 20.1 68.3 19 -3.7 25.3
19:35 1020 30.12 850 25.1 19.7 67.5 19 -4.3 24.3
19:40 1020 30.12 850 25.1 20 68 18 -4.7 23.6
19:45 1020 30.12 850 25.1 20 67.9 19 -4.4 24.2
19:50 1021 30.15 850 25.1 19.8 67.7 19 -4.2 24.4
19:55 1021 30.15 850 25.1 19.5 67.1 21 -3.4 25.8
20:00 1021 30.15 850 25.1 18.9 66 23 -2.8 27
20:05 1021 30.15 850 25.1 18.4 65 22 -3.5 25.7
20:10 1021 30.15 850 25.1 18.4 65.2 22 -3.3 26
20:15 1021 30.15 850 25.1 17.9 64.3 23 -3.2 26.3
20:20 1021 30.15 850 25.1 17.6 63.7 23 -3.4 25.8
20:25 1021 30.15 850 25.1 17.3 63.1 25 -2.9 26.7
20:30 1021 30.15 850 25.1 16.7 62.1 26 -2.6 27.3
20:35 1021 30.15 850 25.1 16 60.9 29 -2 28.4
20:40 1021 30.15 850 25.1 15 58.9 31 -1.8 28.8
20:45 1021 30.15 850 25.1 14.4 58 29 -3.1 26.4
20:50 1021 30.15 850 25.1 15 59.1 29 -2.8 27
20:55 1021 30.15 850 25.1 15 59 29 -2.8 26.9
21:00 1021 30.15 850 25.1 14.9 58.9 29 -2.8 26.9
21:05 1021 30.15 850 25.1 15 59 28 -3.1 26.5
21:10 1021 30.15 850 25.1 15.2 59.3 29 -2.7 27.1
21:15 1021 30.15 850 25.1 14.9 58.8 28 -3.4 25.9
21:20 1021 30.15 850 25.1 14.9 58.9 30 -2.4 27.7
21:25 1021 30.15 851 25.13 14.5 58.1 30 -2.7 27.1
21:30 1021 30.15 851 25.13 14.3 57.7 30 -3 26.5
21:35 1021 30.15 851 25.13 14.2 57.6 31 -2.7 27.1
21:40 1021 30.15 851 25.13 14.1 57.4 31 -2.8 26.9
21:45 1021 30.15 851 25.13 14.2 57.5 29 -3.6 25.6
21:50 1021 30.15 851 25.13 14.9 58.8 29 -3 26.6
21:55 1021 30.15 851 25.13 14.8 58.6 27 -3.8 25.2
22:00 1021 30.15 850 25.1 14.9 58.9 28 -3.2 26.3
22:05 1021 30.15 851 25.13 14.6 58.2 29 -3.3 26
22:10 1021 30.15 851 25.13 14.9 58.8 27 -4.1 24.7
22:15 1021 30.15 851 25.13 15.4 59.7 28 -3.2 26.3
22:20 1021 30.15 851 25.13 15 59 29 -2.6 27.3
22:25 1021 30.15 851 25.13 14.7 58.5 30 -2.6 27.4
22:30 1021 30.15 851 25.13 14.7 58.5 30 -2.6 27.3
22:35 1021 30.15 851 25.13 14.7 58.4 29 -3.3 26.1
22:40 1021 30.15 851 25.13 14.5 58.1 30 -2.7 27.1
22:45 1021 30.15 851 25.13 14.4 57.9 30 -2.9 26.9
22:50 1021 30.15 851 25.13 14.1 57.4 30 -3.2 26.2
22:55 1021 30.15 851 25.13 14.4 57.9 30 -3 26.6
23:00 1021 30.15 851 25.13 14.4 57.9 31 -2.3 27.9
23:05 1021 30.15 851 25.13 13.7 56.6 32 -2.5 27.4
23:10 1021 30.15 851 25.13 13.5 56.3 32 -3 26.6
23:15 1021 30.15 851 25.13 13.5 56.2 32 -3 26.5
23:20 1021 30.15 851 25.13 13.5 56.3 30 -3.7 25.3
23:25 1021 30.15 851 25.13 13.8 56.9 29 -3.8 25.1
23:30 1022 30.18 851 25.13 14.1 57.5 28 -3.8 25.1
23:35 1022 30.18 851 25.13 14.5 58.1 27 -4 24.8
23:40 1022 30.18 851 25.13 14.1 57.4 30 -3.1 26.4
23:45 1022 30.18 851 25.13 13 55.5 33 -2.8 26.9
23:50 1022 30.18 851 25.13 12.5 54.4 33 -3.4 25.8
23:55 1022 30.18 851 25.13 12.6 54.6 31 -4.1 24.6
24:00 1022 30.18 851 25.13 12.9 55.2 31 -3.7 25.4